createdAt,value
2022-10-28T00:00:03.608Z,39.5
2022-10-28T00:05:01.531Z,38.4
2022-10-28T00:15:02.857Z,38.8
2022-10-28T00:25:01.557Z,39.2
2022-10-28T00:30:02.620Z,39.6
2022-10-28T00:35:02.086Z,38.8
2022-10-28T00:45:03.136Z,38.4
2022-10-28T00:50:01.517Z,37.6
2022-10-28T00:55:02.564Z,38.4
2022-10-28T01:00:03.490Z,37.9
2022-10-28T01:05:01.830Z,36.8
2022-10-28T01:15:16.908Z,37.8
2022-10-28T01:20:01.400Z,37.2
2022-10-28T01:25:01.448Z,36.7
2022-10-28T01:30:06.408Z,37.0
2022-10-28T01:35:01.508Z,36.8
2022-10-28T01:40:01.589Z,36.4
2022-10-28T01:45:09.612Z,37.0
2022-10-28T01:50:01.520Z,38.2
2022-10-28T01:55:01.623Z,39.4
2022-10-28T02:00:03.052Z,40.2
2022-10-28T02:05:01.536Z,41.4
2022-10-28T02:10:01.380Z,42.0
2022-10-28T02:15:12.202Z,41.4
2022-10-28T02:20:01.292Z,40.8
2022-10-28T02:30:16.966Z,41.2
2022-10-28T02:35:01.146Z,40.7
2022-10-28T02:40:01.535Z,42.6
2022-10-28T02:45:05.167Z,43.4
2022-10-28T02:50:01.187Z,43.8
2022-10-28T02:55:01.666Z,43.6
2022-10-28T03:00:08.287Z,44.1
2022-10-28T03:05:01.497Z,44.2
2022-10-28T03:10:01.592Z,43.7
2022-10-28T03:15:01.967Z,44.2
2022-10-28T03:20:01.484Z,44.1
2022-10-28T03:25:01.391Z,45.3
2022-10-28T03:30:02.284Z,45.8
2022-10-28T03:35:02.059Z,46.1
2022-10-28T03:45:02.227Z,46.6
2022-10-28T03:50:01.494Z,45.8
2022-10-28T03:55:01.459Z,44.6
2022-10-28T04:00:03.328Z,45.5
2022-10-28T04:05:01.492Z,46.1
2022-10-28T04:15:02.359Z,46.7
2022-10-28T04:20:01.600Z,47.6
2022-10-28T04:25:01.558Z,48.6
2022-10-28T04:30:02.659Z,48.3
2022-10-28T04:35:01.517Z,48.5
2022-10-28T04:40:01.528Z,48.8
2022-10-28T04:45:02.199Z,49.0
2022-10-28T04:50:01.502Z,48.1
2022-10-28T04:55:01.812Z,49.1
2022-10-28T05:00:02.585Z,49.9
2022-10-28T05:05:01.509Z,50.5
2022-10-28T05:10:01.529Z,50.4
2022-10-28T05:15:02.257Z,51.3
2022-10-28T05:20:01.519Z,50.9
2022-10-28T05:25:01.551Z,50.6
2022-10-28T05:30:02.433Z,49.8
2022-10-28T05:35:01.551Z,50.0
2022-10-28T05:40:01.563Z,50.4
2022-10-28T05:45:02.355Z,50.5
2022-10-28T05:50:01.520Z,50.0
2022-10-28T05:55:01.570Z,50.3
2022-10-28T06:00:03.419Z,50.6
2022-10-28T06:05:01.544Z,49.2
2022-10-28T06:15:00.738Z,49.4
2022-10-28T06:19:59.979Z,50.5
2022-10-28T06:25:00.005Z,51.1
2022-10-28T06:30:00.778Z,51.9
2022-10-28T06:35:00.157Z,51.8
2022-10-28T06:40:00.019Z,51.3
2022-10-28T06:45:00.596Z,50.7
2022-10-28T06:50:01.523Z,50.0
2022-10-28T06:55:01.522Z,49.8
2022-10-28T07:00:03.058Z,49.8
2022-10-28T07:05:01.530Z,50.2
2022-10-28T07:10:01.596Z,49.2
2022-10-28T07:15:02.201Z,48.6
2022-10-28T07:20:02.771Z,48.0
2022-10-28T07:25:02.072Z,46.9
2022-10-28T07:30:03.494Z,46.6
2022-10-28T07:35:01.557Z,46.0
2022-10-28T07:40:02.223Z,45.8
2022-10-28T07:45:02.199Z,44.9
2022-10-28T07:50:02.172Z,43.9
2022-10-28T07:55:01.744Z,42.6
2022-10-28T08:00:03.299Z,41.3
2022-10-28T08:05:01.546Z,39.5
2022-10-28T08:10:01.539Z,38.0
2022-10-28T08:15:02.122Z,37.4
2022-10-28T08:20:01.555Z,38.2
2022-10-28T08:25:01.525Z,37.7
2022-10-28T08:30:02.465Z,37.7
2022-10-28T08:35:01.511Z,38.5
2022-10-28T08:40:01.540Z,37.5
2022-10-28T08:45:17.132Z,35.1
2022-10-28T08:50:01.509Z,35.4
2022-10-28T08:55:05.198Z,33.4
2022-10-28T09:00:05.190Z,31.6
2022-10-28T09:05:01.590Z,32.5
2022-10-28T09:10:01.511Z,33.2
2022-10-28T09:15:17.519Z,32.2
2022-10-28T09:20:01.426Z,31.9
2022-10-28T09:30:17.247Z,29.8
2022-10-28T09:35:01.546Z,28.4
2022-10-28T09:40:01.417Z,28.0
2022-10-28T09:45:03.605Z,27.7
2022-10-28T09:50:01.560Z,26.5
2022-10-28T09:55:01.555Z,26.0
2022-10-28T10:00:02.806Z,25.6
2022-10-28T10:05:01.534Z,23.7
2022-10-28T10:10:01.625Z,24.2
2022-10-28T10:15:04.319Z,24.5
2022-10-28T10:20:06.355Z,24.6
2022-10-28T10:25:01.515Z,23.7
2022-10-28T10:30:17.056Z,24.2
2022-10-28T10:35:01.552Z,23.3
2022-10-28T10:40:16.576Z,22.0
2022-10-28T10:45:15.464Z,21.2
2022-10-28T10:55:01.660Z,21.0
2022-10-28T11:00:02.817Z,20.7
2022-10-28T11:05:01.517Z,22.1
2022-10-28T11:10:01.520Z,22.3
2022-10-28T11:15:17.369Z,21.8
2022-10-28T11:20:01.519Z,22.3
2022-10-28T11:25:01.419Z,21.4
2022-10-28T11:30:02.256Z,19.6
2022-10-28T11:35:17.223Z,19.8
2022-10-28T11:40:01.425Z,19.9
2022-10-28T11:45:16.245Z,19.4
2022-10-28T11:50:01.429Z,20.6
2022-10-28T11:55:01.449Z,22.2
2022-10-28T12:00:11.722Z,22.1
2022-10-28T12:05:01.540Z,22.5
2022-10-28T12:10:01.538Z,23.3
2022-10-28T12:16:01.543Z,24.0
2022-10-28T12:21:01.675Z,23.7
2022-10-28T12:26:01.522Z,24.2
2022-10-28T12:41:06.577Z,24.2
2022-10-28T12:46:01.526Z,25.2
2022-10-28T12:51:01.740Z,25.0
2022-10-28T12:56:01.608Z,25.6
2022-10-28T13:01:01.619Z,26.2
2022-10-28T13:06:01.513Z,27.1
2022-10-28T13:11:01.541Z,27.0
2022-10-28T13:21:01.581Z,26.9
2022-10-28T13:26:01.407Z,27.9
2022-10-28T13:31:01.513Z,27.7
2022-10-28T13:36:01.534Z,26.9
2022-10-28T13:41:01.631Z,27.6
2022-10-28T13:46:01.513Z,28.1
2022-10-28T13:51:01.636Z,27.7
2022-10-28T13:56:01.512Z,26.9
2022-10-28T14:01:01.390Z,26.7
2022-10-28T14:06:02.167Z,26.9
2022-10-28T14:11:01.316Z,27.0
2022-10-28T14:16:01.283Z,26.6
2022-10-28T14:21:01.277Z,26.8
2022-10-28T14:26:01.251Z,28.1
2022-10-28T14:31:01.344Z,27.6
2022-10-28T14:36:16.856Z,27.9
2022-10-28T14:41:01.442Z,27.8
2022-10-28T14:46:01.521Z,28.3
2022-10-28T14:51:01.435Z,28.7
2022-10-28T14:56:01.411Z,29.4
2022-10-28T15:01:01.619Z,28.9
2022-10-28T15:06:01.539Z,28.3
2022-10-28T15:11:01.879Z,29.3
2022-10-28T15:16:03.702Z,28.8
2022-10-28T15:21:01.357Z,28.1
2022-10-28T15:26:01.487Z,28.2
2022-10-28T15:31:01.571Z,29.0
2022-10-28T15:36:18.198Z,27.8
2022-10-28T15:41:01.523Z,27.2
2022-10-28T15:46:01.337Z,28.0
2022-10-28T15:51:01.289Z,29.0
2022-10-28T15:56:07.302Z,29.3
2022-10-28T16:01:01.436Z,30.1
2022-10-28T16:06:02.433Z,31.1
2022-10-28T16:11:01.611Z,31.4
2022-10-28T16:16:01.689Z,31.6
2022-10-28T16:21:01.758Z,31.2
2022-10-28T16:26:01.535Z,31.6
2022-10-28T16:31:01.338Z,32.4
2022-10-28T16:36:01.004Z,32.7
2022-10-28T16:41:01.224Z,33.4
2022-10-28T16:46:01.536Z,36.8
2022-10-28T16:51:04.417Z,38.0
2022-10-28T16:56:01.460Z,38.6
2022-10-28T17:01:01.565Z,38.8
2022-10-28T17:06:01.549Z,39.4
2022-10-28T17:11:01.576Z,37.9
2022-10-28T17:16:01.536Z,38.3
2022-10-28T17:21:01.561Z,38.8
2022-10-28T17:26:01.611Z,39.3
2022-10-28T17:31:01.602Z,40.0
2022-10-28T17:36:01.565Z,39.2
2022-10-28T17:41:01.572Z,39.6
2022-10-28T17:46:01.561Z,40.3
2022-10-28T17:51:01.612Z,41.2
2022-10-28T17:56:01.818Z,41.0
2022-10-28T18:01:01.588Z,42.2
2022-10-28T18:06:01.583Z,41.2
2022-10-28T18:11:01.576Z,40.4
2022-10-28T18:16:01.553Z,40.0
2022-10-28T18:21:01.569Z,40.4
2022-10-28T18:27:01.711Z,40.9
2022-10-28T18:32:01.539Z,41.0
2022-10-28T18:37:01.591Z,41.6
2022-10-28T18:42:01.574Z,42.7
2022-10-28T18:47:01.548Z,41.7
2022-10-28T18:52:01.647Z,41.8
2022-10-28T18:57:01.596Z,42.6
2022-10-28T19:02:01.593Z,42.0
2022-10-28T19:07:01.701Z,41.2
2022-10-28T19:12:01.527Z,40.8
2022-10-28T19:17:01.569Z,41.2
2022-10-28T19:22:01.597Z,41.5
2022-10-28T19:27:01.996Z,42.5
2022-10-28T19:37:01.618Z,43.0
2022-10-28T19:42:01.508Z,42.8
2022-10-28T19:47:01.624Z,41.0
2022-10-28T19:52:01.535Z,40.8
2022-10-28T19:57:01.677Z,41.4
2022-10-28T20:02:01.552Z,42.0
2022-10-28T20:07:02.111Z,42.5
2022-10-28T20:12:01.516Z,43.2
2022-10-28T20:17:06.374Z,42.1
2022-10-28T20:22:02.015Z,41.7
2022-10-28T20:27:01.546Z,40.4
2022-10-28T20:32:01.619Z,39.0
2022-10-28T20:37:01.537Z,39.2
2022-10-28T20:42:01.542Z,39.6
2022-10-28T20:47:01.536Z,38.4
2022-10-28T20:52:01.531Z,38.5
2022-10-28T20:57:01.413Z,38.7
2022-10-28T21:02:01.708Z,37.9
2022-10-28T21:07:01.567Z,37.8
2022-10-28T21:12:01.512Z,39.2
2022-10-28T21:17:01.515Z,40.2
2022-10-28T21:22:01.534Z,41.0
2022-10-28T21:27:01.542Z,42.3
2022-10-28T21:32:01.420Z,43.0
2022-10-28T21:37:01.587Z,42.7
2022-10-28T21:42:01.540Z,41.2
2022-10-28T21:47:01.541Z,40.4
2022-10-28T21:52:01.533Z,39.6
2022-10-28T21:57:01.548Z,38.7
2022-10-28T22:02:03.505Z,38.3
2022-10-28T22:07:01.670Z,38.1
2022-10-28T22:12:01.470Z,38.8
2022-10-28T22:17:01.446Z,38.1
2022-10-28T22:22:01.675Z,38.2
2022-10-28T22:27:01.436Z,38.8
2022-10-28T22:32:01.426Z,39.8
2022-10-28T22:37:01.333Z,38.4
2022-10-28T22:42:01.441Z,39.4
2022-10-28T22:52:01.437Z,37.5
2022-10-28T22:57:01.440Z,37.7
2022-10-28T23:02:01.554Z,38.2
2022-10-28T23:07:01.491Z,37.4
2022-10-28T23:12:01.489Z,38.1
2022-10-28T23:17:01.508Z,37.8
2022-10-28T23:22:01.658Z,36.6
2022-10-28T23:27:01.974Z,34.7
2022-10-28T23:32:01.615Z,34.8
2022-10-28T23:37:01.568Z,34.9
2022-10-28T23:43:01.573Z,33.8
2022-10-28T23:48:01.554Z,33.4
2022-10-28T23:58:01.546Z,33.2
